Time;durP1;ratioP1;P1;durP2;ratioP2;P2;SDS_P1;SDS_P2;PMS_P1;PMS_P2;Temp;Humidity;BMP_temperature;BMP_pressure;BME280_temperature;BME280_humidity;BME280_pressure;Samples;Min_cycle;Max_cycle;Signal;HPM_P1;HPM_P2
2023/07/21 00:00:13;;;;;;;3.53;2.10;;;15.50;99.90;;;;;;6240939;23;20039;-71
2023/07/21 00:02:41;;;;;;;6.30;2.20;;;15.50;99.90;;;;;;6215883;23;20024;-72
2023/07/21 00:05:07;;;;;;;4.85;2.50;;;15.60;99.90;;;;;;6242721;23;20020;-71
2023/07/21 00:07:35;;;;;;;3.97;1.95;;;15.50;99.90;;;;;;6215509;23;20055;-71
2023/07/21 00:10:07;;;;;;;3.63;2.10;;;15.40;99.90;;;;;;6215688;23;20023;-72
2023/07/21 00:12:34;;;;;;;4.55;2.03;;;15.40;99.90;;;;;;6190818;23;20468;-71
2023/07/21 00:15:00;;;;;;;5.57;2.13;;;15.40;99.90;;;;;;6215850;23;20054;-71
2023/07/21 00:17:28;;;;;;;4.15;1.95;;;15.40;99.90;;;;;;6242835;23;20045;-71
2023/07/21 00:19:54;;;;;;;4.63;2.30;;;15.30;99.90;;;;;;6242636;23;20055;-71
2023/07/21 00:22:19;;;;;;;3.50;2.28;;;15.30;99.90;;;;;;6215593;23;20081;-71
2023/07/21 00:24:45;;;;;;;7.20;2.33;;;15.40;99.90;;;;;;6242303;23;20102;-71
2023/07/21 00:27:11;;;;;;;7.07;2.83;;;15.40;99.90;;;;;;6216093;23;20020;-71
2023/07/21 00:29:37;;;;;;;3.35;2.10;;;15.30;99.90;;;;;;6242685;23;20105;-72
2023/07/21 00:32:03;;;;;;;3.10;2.15;;;15.20;99.90;;;;;;6242965;23;20027;-71
2023/07/21 00:34:28;;;;;;;3.10;2.42;;;15.10;99.90;;;;;;6215288;23;20369;-70
2023/07/21 00:36:56;;;;;;;3.78;2.00;;;15.20;99.90;;;;;;6242910;23;20026;-71
2023/07/21 00:39:22;;;;;;;5.97;2.45;;;15.20;99.90;;;;;;6215805;23;20024;-71
2023/07/21 00:41:48;;;;;;;3.33;2.50;;;15.20;99.90;;;;;;6242839;23;20103;-71
2023/07/21 00:44:14;;;;;;;5.10;2.05;;;15.20;99.90;;;;;;6242198;23;20024;-71
2023/07/21 00:46:40;;;;;;;5.47;2.45;;;15.30;99.90;;;;;;6242447;23;20016;-71
2023/07/21 00:49:05;;;;;;;4.38;2.40;;;15.30;99.90;;;;;;6215195;23;20073;-71
2023/07/21 00:51:32;;;;;;;5.18;2.33;;;15.30;99.90;;;;;;6215305;23;20170;-71
2023/07/21 00:53:58;;;;;;;5.38;2.30;;;15.30;99.90;;;;;;6242296;23;20019;-71
2023/07/21 00:56:24;;;;;;;4.97;2.25;;;15.20;99.90;;;;;;6215147;23;20733;-71
2023/07/21 00:58:49;;;;;;;6.53;2.20;;;15.10;99.90;;;;;;6242224;23;20024;-71
2023/07/21 01:01:15;;;;;;;4.72;2.50;;;15.10;99.90;;;;;;6215377;23;20031;-71
2023/07/21 01:03:41;;;;;;;3.20;2.17;;;15.10;99.90;;;;;;6215549;23;20295;-71
2023/07/21 01:06:08;;;;;;;5.25;2.88;;;15.10;99.90;;;;;;6242268;23;20022;-71
2023/07/21 01:08:35;;;;;;;4.10;2.45;;;15.10;99.90;;;;;;6215227;23;20024;-71
2023/07/21 01:11:01;;;;;;;2.85;2.20;;;15.10;99.90;;;;;;6242505;23;20012;-71
2023/07/21 01:13:29;;;;;;;4.47;2.22;;;15.10;99.90;;;;;;6215416;23;20348;-71
2023/07/21 01:15:56;;;;;;;2.47;2.05;;;15.10;99.90;;;;;;6242738;23;20109;-71
2023/07/21 01:18:22;;;;;;;4.82;2.35;;;15.10;99.90;;;;;;6215032;23;20075;-71
2023/07/21 01:20:49;;;;;;;2.25;1.80;;;15.20;99.90;;;;;;6242511;23;20024;-71
2023/07/21 01:23:31;;;;;;;5.20;2.10;;;15.20;99.90;;;;;;6242190;23;20016;-71
2023/07/21 01:25:58;;;;;;;2.63;2.05;;;15.20;99.90;;;;;;6215029;23;20071;-71
2023/07/21 01:28:26;;;;;;;2.50;1.90;;;15.20;99.90;;;;;;6215246;23;20039;-71
2023/07/21 01:30:54;;;;;;;2.10;1.90;;;15.20;99.90;;;;;;6214996;23;20020;-71
2023/07/21 01:33:20;;;;;;;4.15;1.95;;;15.20;99.90;;;;;;6241915;23;20027;-71
2023/07/21 01:35:50;;;;;;;2.30;1.88;;;15.20;99.90;;;;;;6242152;23;20024;-71
2023/07/21 01:38:18;;;;;;;4.13;2.08;;;15.30;99.90;;;;;;6242630;23;20028;-71
2023/07/21 01:40:44;;;;;;;3.75;2.67;;;15.20;99.90;;;;;;6215398;23;20417;-71
2023/07/21 01:43:11;;;;;;;3.55;2.33;;;15.10;99.90;;;;;;6215131;23;20081;-71
2023/07/21 01:45:38;;;;;;;3.42;2.42;;;15.10;99.90;;;;;;6214824;23;20474;-71
2023/07/21 01:48:04;;;;;;;4.25;2.05;;;15.10;99.90;;;;;;6214625;23;20020;-71
2023/07/21 01:50:31;;;;;;;2.80;2.50;;;15.00;99.90;;;;;;6214864;23;20056;-71
2023/07/21 01:53:00;;;;;;;4.15;2.30;;;15.10;99.90;;;;;;6241832;23;20051;-72
2023/07/21 01:55:35;;;;;;;4.05;2.38;;;15.00;99.90;;;;;;6241451;23;20458;-71
2023/07/21 01:58:05;;;;;;;3.20;1.95;;;15.00;99.90;;;;;;6214760;23;20093;-71
2023/07/21 02:00:42;;;;;;;5.97;2.20;;;15.10;99.90;;;;;;6189714;23;20043;-72
2023/07/21 02:03:08;;;;;;;2.67;1.95;;;15.10;99.90;;;;;;6214334;23;20344;-72
2023/07/21 02:05:34;;;;;;;5.80;2.30;;;15.10;99.90;;;;;;6241759;23;20028;-71
2023/07/21 02:07:59;;;;;;;3.58;2.20;;;15.00;99.90;;;;;;6241707;23;20036;-71
2023/07/21 02:10:25;;;;;;;4.30;2.50;;;14.90;99.90;;;;;;6214453;23;20016;-71
2023/07/21 02:12:51;;;;;;;2.92;2.00;;;14.80;99.90;;;;;;6241685;23;20066;-71
2023/07/21 02:15:17;;;;;;;6.70;2.35;;;14.80;99.90;;;;;;6241530;23;20024;-71
2023/07/21 02:17:43;;;;;;;4.03;2.08;;;14.90;99.90;;;;;;6214409;23;20056;-71
2023/07/21 02:20:09;;;;;;;4.63;2.20;;;14.90;99.90;;;;;;6242927;23;20024;-71
2023/07/21 02:22:37;;;;;;;3.53;2.05;;;14.70;99.90;;;;;;6241850;23;20086;-71
2023/07/21 02:25:04;;;;;;;5.82;2.20;;;14.70;99.90;;;;;;6188816;23;20354;-71
2023/07/21 02:27:32;;;;;;;7.65;3.45;;;14.80;99.90;;;;;;6241744;23;20348;-71
2023/07/21 02:29:58;;;;;;;3.55;2.20;;;14.80;99.90;;;;;;6241562;23;20020;-72
2023/07/21 02:32:24;;;;;;;3.10;1.95;;;14.70;99.90;;;;;;6214129;23;20074;-71
2023/07/21 02:34:50;;;;;;;2.65;1.85;;;14.60;99.90;;;;;;6241723;23;20028;-71
2023/07/21 02:37:16;;;;;;;5.57;2.40;;;14.70;99.90;;;;;;6214299;23;20047;-71
2023/07/21 02:39:42;;;;;;;5.15;2.88;;;14.80;99.90;;;;;;6214303;23;20020;-71
2023/07/21 02:42:08;;;;;;;3.72;3.00;;;14.70;99.90;;;;;;6214190;23;20095;-71
2023/07/21 02:44:34;;;;;;;8.25;2.90;;;14.70;99.90;;;;;;6241024;23;20511;-71
2023/07/21 02:47:00;;;;;;;5.35;2.78;;;14.70;99.90;;;;;;6213936;23;20452;-71
2023/07/21 02:49:26;;;;;;;3.60;2.47;;;14.70;99.90;;;;;;6241503;23;20031;-71
2023/07/21 02:51:51;;;;;;;6.45;3.05;;;14.70;99.90;;;;;;6241172;23;20468;-71
2023/07/21 02:54:17;;;;;;;4.40;3.10;;;14.60;99.90;;;;;;6214166;23;20084;-71
2023/07/21 02:56:44;;;;;;;6.05;3.30;;;14.60;99.90;;;;;;6188716;23;20078;-71
2023/07/21 02:59:10;;;;;;;5.07;3.53;;;14.60;99.90;;;;;;6214170;23;20031;-71
2023/07/21 03:01:37;;;;;;;10.63;3.70;;;14.70;99.90;;;;;;6213894;23;20028;-71
2023/07/21 03:04:03;;;;;;;4.60;3.22;;;14.60;99.90;;;;;;6214190;23;20030;-71
2023/07/21 03:06:30;;;;;;;6.50;3.67;;;14.50;99.90;;;;;;6241377;23;20051;-71
2023/07/21 03:08:56;;;;;;;8.10;3.17;;;14.40;99.90;;;;;;6214222;23;20721;-71
2023/07/21 03:11:22;;;;;;;3.67;2.60;;;14.50;99.90;;;;;;6189147;23;20353;-71
2023/07/21 03:13:48;;;;;;;4.18;3.00;;;14.50;99.90;;;;;;6241060;23;20020;-71
2023/07/21 03:16:14;;;;;;;4.97;3.10;;;14.60;99.90;;;;;;6213936;23;20028;-72
2023/07/21 03:18:40;;;;;;;6.22;2.97;;;14.60;99.90;;;;;;6241214;23;20031;-71
2023/07/21 03:21:06;;;;;;;5.13;3.35;;;14.60;99.90;;;;;;6240994;23;20506;-71
2023/07/21 03:23:32;;;;;;;4.20;3.28;;;14.70;99.90;;;;;;6213919;23;20030;-71
2023/07/21 03:25:57;;;;;;;6.68;2.90;;;14.70;99.90;;;;;;6240543;23;20052;-71
2023/07/21 03:28:23;;;;;;;6.07;2.83;;;14.70;99.90;;;;;;6213702;23;20047;-71
2023/07/21 03:31:02;;;;;;;5.43;2.88;;;14.60;99.90;;;;;;6240889;23;20460;-71
2023/07/21 03:33:29;;;;;;;5.97;3.05;;;14.60;99.90;;;;;;6213788;23;20067;-72
2023/07/21 03:36:02;;;;;;;4.68;3.10;;;14.50;99.90;;;;;;6213303;23;20015;-71
2023/07/21 03:38:31;;;;;;;4.00;2.88;;;14.60;99.90;;;;;;6214105;23;20029;-71
2023/07/21 03:41:07;;;;;;;8.07;3.17;;;14.60;99.90;;;;;;6214009;23;20047;-71
2023/07/21 03:43:35;;;;;;;4.97;2.72;;;14.70;99.90;;;;;;6240646;23;20070;-71
2023/07/21 03:46:02;;;;;;;4.72;2.70;;;14.70;99.90;;;;;;6213711;23;20020;-71
2023/07/21 03:48:29;;;;;;;5.65;2.35;;;14.70;99.90;;;;;;6240595;23;20095;-71
2023/07/21 03:50:59;;;;;;;4.60;3.05;;;14.70;99.90;;;;;;6213699;23;20089;-71
2023/07/21 03:53:26;;;;;;;4.22;2.88;;;14.70;99.90;;;;;;6240994;23;20027;-71
2023/07/21 03:55:52;;;;;;;6.28;2.95;;;14.70;99.90;;;;;;6240655;23;20019;-71
2023/07/21 03:58:18;;;;;;;5.63;2.70;;;14.70;99.90;;;;;;6240798;23;20039;-71
2023/07/21 04:00:44;;;;;;;3.35;2.58;;;14.70;99.90;;;;;;6240820;23;20341;-71
2023/07/21 04:03:10;;;;;;;3.85;2.53;;;14.70;99.90;;;;;;6241029;23;20027;-71
2023/07/21 04:05:35;;;;;;;4.57;2.55;;;14.70;99.90;;;;;;6240962;23;20369;-71
2023/07/21 04:08:02;;;;;;;3.35;2.42;;;14.70;99.90;;;;;;6241106;23;20073;-71
2023/07/21 04:10:29;;;;;;;6.57;2.75;;;14.70;99.90;;;;;;6240789;23;20077;-71
2023/07/21 04:12:56;;;;;;;3.15;2.50;;;14.70;99.90;;;;;;6240647;23;20016;-72
2023/07/21 04:15:27;;;;;;;5.40;2.80;;;14.70;99.90;;;;;;6213788;23;20024;-71
2023/07/21 04:17:54;;;;;;;3.77;2.77;;;14.70;99.90;;;;;;6240836;23;20027;-71
2023/07/21 04:20:22;;;;;;;4.30;3.00;;;14.70;99.90;;;;;;6241030;23;20330;-71
2023/07/21 04:22:48;;;;;;;6.38;2.95;;;14.80;99.90;;;;;;6241469;23;20018;-71
2023/07/21 04:25:15;;;;;;;3.10;2.70;;;14.80;99.90;;;;;;6213680;23;20435;-71
2023/07/21 04:27:41;;;;;;;4.20;2.78;;;14.70;99.90;;;;;;6213769;23;20031;-72
2023/07/21 04:30:07;;;;;;;3.33;2.92;;;14.80;99.90;;;;;;6240965;23;20039;-71
2023/07/21 04:32:33;;;;;;;6.78;2.90;;;14.80;99.90;;;;;;6213817;23;20024;-71
2023/07/21 04:35:03;;;;;;;8.77;2.97;;;14.70;99.90;;;;;;6240036;23;20028;-72
2023/07/21 04:37:29;;;;;;;4.97;2.58;;;14.70;99.90;;;;;;6213695;23;20099;-72
2023/07/21 04:39:55;;;;;;;5.43;3.47;;;14.70;99.90;;;;;;6241227;23;20357;-71
2023/07/21 04:42:20;;;;;;;4.38;2.75;;;14.50;99.90;;;;;;6214001;23;20352;-71
2023/07/21 04:44:48;;;;;;;4.68;2.90;;;14.50;99.90;;;;;;6240923;23;20024;-71
2023/07/21 04:47:13;;;;;;;4.35;2.80;;;14.60;99.90;;;;;;6241709;23;20060;-71
2023/07/21 04:49:39;;;;;;;5.78;2.53;;;14.60;99.90;;;;;;6215601;23;20031;-72
2023/07/21 04:52:05;;;;;;;5.78;2.95;;;14.70;99.90;;;;;;6215366;23;20044;-72
2023/07/21 04:54:31;;;;;;;3.38;2.65;;;14.70;99.90;;;;;;6215456;23;20020;-71
2023/07/21 04:56:56;;;;;;;3.95;2.88;;;14.70;99.90;;;;;;6241949;23;20016;-71
2023/07/21 04:59:23;;;;;;;6.00;2.67;;;14.70;99.90;;;;;;6242353;23;20027;-71
2023/07/21 05:01:49;;;;;;;5.20;2.70;;;14.70;99.90;;;;;;6215449;23;20450;-71
2023/07/21 05:04:16;;;;;;;3.75;3.20;;;14.70;99.90;;;;;;6242474;23;20020;-71
2023/07/21 05:06:47;;;;;;;4.40;3.70;;;14.70;99.90;;;;;;6215329;23;20020;-72
2023/07/21 05:09:14;;;;;;;5.80;3.70;;;14.70;99.90;;;;;;6215472;23;20539;-71
2023/07/21 05:11:40;;;;;;;5.97;3.80;;;14.70;99.90;;;;;;6189921;23;20020;-71
2023/07/21 05:14:06;;;;;;;8.98;3.78;;;14.80;99.90;;;;;;6215374;23;20447;-71
2023/07/21 05:16:32;;;;;;;5.97;3.65;;;14.80;99.90;;;;;;6242558;23;20095;-72
2023/07/21 05:18:58;;;;;;;7.38;3.80;;;15.10;99.90;;;;;;6242953;23;20016;-71
2023/07/21 05:21:24;;;;;;;6.60;3.95;;;15.20;99.90;;;;;;6242275;23;20028;-72
2023/07/21 05:23:49;;;;;;;5.75;3.80;;;15.30;99.90;;;;;;6215279;23;20122;-71
2023/07/21 05:26:16;;;;;;;4.60;3.38;;;15.40;99.90;;;;;;6241721;23;20020;-72
2023/07/21 05:28:41;;;;;;;4.55;3.25;;;15.50;99.90;;;;;;6242574;23;20008;-72
2023/07/21 05:31:11;;;;;;;5.68;3.67;;;15.50;99.90;;;;;;6190135;23;20348;-71
2023/07/21 05:33:37;;;;;;;5.55;4.13;;;15.60;99.90;;;;;;6215446;23;20050;-72
2023/07/21 05:36:08;;;;;;;6.55;3.63;;;15.60;99.90;;;;;;6216008;23;20436;-71
2023/07/21 05:38:40;;;;;;;5.32;3.75;;;15.70;99.90;;;;;;6242630;23;20392;-71
2023/07/21 05:41:06;;;;;;;7.18;4.15;;;15.70;99.90;;;;;;6215004;23;20028;-72
2023/07/21 05:43:32;;;;;;;11.73;3.67;;;15.70;99.90;;;;;;6215025;23;20355;-72
2023/07/21 05:45:58;;;;;;;5.75;3.90;;;15.90;99.90;;;;;;6242392;23;20413;-72
2023/07/21 05:48:26;;;;;;;12.40;4.35;;;16.00;99.90;;;;;;6242275;23;20051;-72
2023/07/21 05:50:52;;;;;;;6.75;4.18;;;16.00;99.90;;;;;;6241987;23;20043;-71
2023/07/21 05:53:19;;;;;;;11.88;3.67;;;16.00;99.90;;;;;;6214711;23;20027;-72
2023/07/21 05:55:46;;;;;;;5.90;3.15;;;16.00;99.90;;;;;;6241496;23;20035;-71
2023/07/21 05:58:12;;;;;;;6.07;3.30;;;16.20;99.90;;;;;;6214416;23;20457;-71
2023/07/21 06:00:39;;;;;;;4.40;2.65;;;16.20;99.90;;;;;;6214830;23;20096;-71
2023/07/21 06:03:05;;;;;;;8.52;3.75;;;16.40;99.90;;;;;;6214948;23;20082;-72
2023/07/21 06:05:32;;;;;;;5.30;3.10;;;16.50;99.90;;;;;;6241507;23;20020;-71
2023/07/21 06:07:58;;;;;;;5.72;3.50;;;16.60;99.90;;;;;;6241415;23;20012;-72
2023/07/21 06:10:24;;;;;;;3.78;2.97;;;16.70;99.90;;;;;;6241630;23;20054;-71
2023/07/21 06:12:49;;;;;;;8.70;3.05;;;16.80;99.90;;;;;;6241894;23;20020;-71
2023/07/21 06:15:15;;;;;;;5.07;3.03;;;16.80;99.90;;;;;;6241345;23;20028;-71
2023/07/21 06:17:41;;;;;;;9.68;2.90;;;17.00;99.90;;;;;;6241490;23;20031;-71
2023/07/21 06:20:09;;;;;;;4.78;3.03;;;17.10;99.90;;;;;;6241929;23;20024;-71
2023/07/21 06:22:35;;;;;;;4.20;2.70;;;17.20;99.90;;;;;;6214154;23;20103;-71
2023/07/21 06:25:03;;;;;;;4.65;2.30;;;17.30;99.90;;;;;;6241275;23;20102;-72
2023/07/21 06:27:29;;;;;;;2.85;2.00;;;17.30;99.90;;;;;;6241589;23;20308;-71
2023/07/21 06:29:55;;;;;;;3.63;2.13;;;17.40;99.90;;;;;;6241573;23;20337;-71
2023/07/21 06:32:21;;;;;;;4.45;2.55;;;17.40;99.90;;;;;;6214074;23;20063;-71
2023/07/21 06:34:47;;;;;;;3.13;2.10;;;17.40;99.90;;;;;;6214312;23;20500;-71
2023/07/21 06:37:13;;;;;;;7.72;2.20;;;17.50;99.90;;;;;;6215302;23;20117;-71
2023/07/21 06:39:39;;;;;;;3.03;1.95;;;17.50;99.90;;;;;;6216123;23;20423;-71
2023/07/21 06:42:05;;;;;;;3.05;1.90;;;17.50;99.90;;;;;;6214355;23;20717;-71
2023/07/21 06:44:31;;;;;;;9.73;1.80;;;17.60;99.90;;;;;;6214417;23;20052;-71
2023/07/21 06:46:57;;;;;;;4.75;1.38;;;17.70;99.90;;;;;;6241951;23;20024;-71
2023/07/21 06:49:23;;;;;;;2.83;1.67;;;17.80;99.90;;;;;;6214593;23;20509;-71
2023/07/21 06:51:49;;;;;;;3.38;1.10;;;17.90;99.90;;;;;;6215012;23;20016;-71
2023/07/21 06:54:14;;;;;;;3.28;1.13;;;17.90;99.90;;;;;;6214948;23;20031;-70
2023/07/21 06:56:40;;;;;;;4.05;1.55;;;18.00;99.90;;;;;;6241405;23;20081;-70
2023/07/21 06:59:06;;;;;;;1.90;1.25;;;18.20;99.90;;;;;;6214450;23;20099;-71
2023/07/21 07:01:32;;;;;;;2.67;1.23;;;18.30;99.90;;;;;;6241738;23;20023;-71
2023/07/21 07:03:59;;;;;;;3.75;1.40;;;18.40;99.90;;;;;;6241503;23;20789;-71
2023/07/21 07:06:27;;;;;;;5.40;1.42;;;18.50;99.90;;;;;;6213748;23;20030;-71
2023/07/21 07:08:53;;;;;;;4.43;1.50;;;18.70;99.90;;;;;;6240983;23;20395;-71
2023/07/21 07:11:18;;;;;;;1.73;1.20;;;18.90;99.90;;;;;;6241434;23;20043;-70
2023/07/21 07:13:44;;;;;;;2.60;1.45;;;19.00;99.90;;;;;;6240839;23;20395;-70
2023/07/21 07:16:11;;;;;;;3.33;1.27;;;19.10;99.90;;;;;;6213994;23;20058;-70
2023/07/21 07:18:37;;;;;;;2.65;1.35;;;19.00;99.90;;;;;;6241169;23;20028;-70
2023/07/21 07:21:03;;;;;;;4.78;1.33;;;18.90;99.90;;;;;;6213580;23;20452;-71
2023/07/21 07:23:29;;;;;;;2.22;1.20;;;19.00;99.90;;;;;;6241056;23;20027;-70
2023/07/21 07:25:55;;;;;;;5.68;2.03;;;19.00;99.90;;;;;;6241103;23;20336;-71
2023/07/21 07:28:21;;;;;;;4.75;1.52;;;19.00;99.90;;;;;;6241258;23;20377;-71
2023/07/21 07:30:48;;;;;;;6.55;1.92;;;19.00;99.90;;;;;;6214080;23;20056;-70
2023/07/21 07:33:15;;;;;;;2.00;1.15;;;19.20;99.90;;;;;;6213983;23;20055;-71
2023/07/21 07:35:52;;;;;;;4.10;1.20;;;19.40;99.90;;;;;;6239498;23;20030;-71
2023/07/21 07:38:20;;;;;;;3.88;1.50;;;19.50;99.90;;;;;;6240939;23;20016;-72
2023/07/21 07:40:47;;;;;;;2.85;1.40;;;19.60;99.90;;;;;;6240583;23;20020;-70
2023/07/21 07:43:13;;;;;;;2.35;1.30;;;19.60;99.90;;;;;;6240596;23;20047;-70
2023/07/21 07:45:39;;;;;;;2.50;1.02;;;19.70;99.90;;;;;;6240781;23;20027;-71
2023/07/21 07:48:07;;;;;;;2.60;1.17;;;19.80;99.90;;;;;;6240477;23;20555;-71
2023/07/21 07:50:39;;;;;;;2.45;1.05;;;19.70;99.90;;;;;;6240582;23;20095;-71
2023/07/21 07:53:06;;;;;;;7.85;1.60;;;19.80;99.90;;;;;;6213801;23;20034;-71
2023/07/21 07:55:38;;;;;;;4.18;1.10;;;19.80;99.90;;;;;;6213785;23;20056;-71
2023/07/21 07:58:05;;;;;;;5.07;1.10;;;19.70;99.90;;;;;;6213508;23;20020;-71
2023/07/21 08:00:33;;;;;;;3.15;1.30;;;19.70;99.90;;;;;;6241022;23;20009;-70
2023/07/21 08:02:59;;;;;;;1.40;1.00;;;19.90;99.90;;;;;;6188722;23;20031;-71
2023/07/21 08:05:25;;;;;;;1.92;1.10;;;20.00;99.90;;;;;;6213383;23;20627;-70
2023/07/21 08:07:51;;;;;;;5.45;1.52;;;20.20;99.90;;;;;;6239708;23;20028;-70
2023/07/21 08:10:16;;;;;;;2.50;1.10;;;20.20;99.90;;;;;;6240709;23;20020;-71
2023/07/21 08:12:42;;;;;;;2.13;1.10;;;20.30;99.90;;;;;;6188839;23;20020;-72
2023/07/21 08:15:09;;;;;;;3.58;1.10;;;20.30;99.90;;;;;;6240699;23;20027;-70
2023/07/21 08:17:38;;;;;;;1.30;1.10;;;20.40;99.90;;;;;;6213728;23;20028;-70
2023/07/21 08:20:04;;;;;;;1.10;0.98;;;20.40;99.90;;;;;;6240419;23;20024;-70
2023/07/21 08:22:30;;;;;;;1.60;1.00;;;20.50;99.90;;;;;;6215101;23;20020;-71
2023/07/21 08:24:55;;;;;;;3.60;1.10;;;20.50;99.90;;;;;;6215774;23;20031;-71
2023/07/21 08:27:21;;;;;;;1.25;1.15;;;20.50;99.90;;;;;;6243463;23;20044;-70
2023/07/21 08:29:47;;;;;;;2.88;1.05;;;20.60;99.90;;;;;;6242924;23;20019;-71
2023/07/21 08:32:13;;;;;;;1.55;0.93;;;20.70;99.90;;;;;;6243156;23;20012;-71
2023/07/21 08:34:39;;;;;;;1.70;1.13;;;20.80;99.90;;;;;;6242610;23;20027;-71
2023/07/21 08:37:05;;;;;;;1.45;0.90;;;20.70;99.90;;;;;;6242968;23;20024;-70
2023/07/21 08:39:31;;;;;;;1.27;1.00;;;20.70;99.90;;;;;;6242877;23;20023;-70
2023/07/21 08:41:59;;;;;;;3.17;1.05;;;20.60;99.90;;;;;;6215187;23;20075;-71
2023/07/21 08:44:27;;;;;;;1.85;1.08;;;20.80;99.90;;;;;;6242294;23;20012;-71
2023/07/21 08:46:52;;;;;;;1.63;0.90;;;20.80;99.90;;;;;;6215489;23;20026;-70
2023/07/21 08:49:18;;;;;;;1.63;1.20;;;20.80;99.90;;;;;;6242413;23;20055;-71
2023/07/21 08:51:44;;;;;;;1.20;0.90;;;20.70;99.90;;;;;;6242510;23;20056;-70
2023/07/21 08:54:09;;;;;;;5.50;1.05;;;20.80;99.90;;;;;;6242729;23;20020;-71
2023/07/21 08:56:35;;;;;;;1.45;1.10;;;20.90;99.90;;;;;;6242097;23;20461;-70
2023/07/21 08:59:01;;;;;;;3.80;0.90;;;20.90;99.90;;;;;;6242922;23;20027;-71
2023/07/21 09:01:27;;;;;;;1.35;1.10;;;20.80;99.90;;;;;;6242500;23;20008;-71
2023/07/21 09:03:53;;;;;;;3.97;1.33;;;20.80;99.90;;;;;;6242329;23;20013;-67
2023/07/21 09:06:18;;;;;;;4.65;1.30;;;20.90;99.90;;;;;;6241875;23;20027;-71
2023/07/21 09:08:47;;;;;;;5.10;1.65;;;21.00;99.90;;;;;;6214213;23;20077;-69
2023/07/21 09:11:14;;;;;;;3.33;1.45;;;21.10;99.90;;;;;;6241848;23;20078;-71
2023/07/21 09:13:40;;;;;;;2.30;1.00;;;21.10;99.90;;;;;;6241040;23;20056;-70
2023/07/21 09:16:06;;;;;;;2.15;0.70;;;21.20;99.90;;;;;;6241479;23;20043;-71
2023/07/21 09:18:52;;;;;;;3.03;1.45;;;21.10;99.90;;;;;;6241443;23;20095;-71
2023/07/21 09:21:22;;;;;;;1.70;1.25;;;21.10;99.90;;;;;;6215349;23;20079;-71
2023/07/21 09:23:48;;;;;;;2.22;1.50;;;21.10;99.90;;;;;;6215161;23;20055;-71
2023/07/21 09:26:22;;;;;;;1.67;1.10;;;21.10;99.90;;;;;;6214806;23;20028;-71
2023/07/21 09:28:47;;;;;;;2.42;1.17;;;21.00;99.90;;;;;;6242390;23;20012;-71
2023/07/21 09:31:14;;;;;;;2.78;1.23;;;21.00;99.90;;;;;;6242379;23;20024;-71
2023/07/21 09:33:42;;;;;;;3.72;1.27;;;21.00;99.90;;;;;;6215355;23;20036;-71
2023/07/21 09:36:13;;;;;;;3.17;1.35;;;21.10;99.90;;;;;;6241892;23;20466;-71
2023/07/21 09:38:40;;;;;;;1.40;1.13;;;21.20;99.90;;;;;;6215368;23;20020;-71
2023/07/21 09:41:09;;;;;;;2.15;1.10;;;21.30;99.90;;;;;;6242040;23;20020;-71
2023/07/21 09:43:35;;;;;;;1.17;1.00;;;21.30;99.90;;;;;;6215028;23;20024;-71
2023/07/21 09:46:10;;;;;;;0.98;0.90;;;21.60;99.90;;;;;;6241695;23;20029;-71
2023/07/21 09:48:40;;;;;;;3.28;1.00;;;21.60;99.90;;;;;;6242200;23;20051;-71
2023/07/21 09:51:10;;;;;;;5.00;1.40;;;21.60;99.90;;;;;;6215017;23;20054;-72
2023/07/21 09:53:43;;;;;;;2.28;1.23;;;21.70;99.90;;;;;;6242049;23;20032;-72
2023/07/21 09:56:10;;;;;;;3.22;1.38;;;21.70;99.90;;;;;;6241812;23;20048;-72
2023/07/21 09:58:41;;;;;;;3.05;1.48;;;21.70;99.90;;;;;;6214967;23;20448;-72
2023/07/21 10:01:09;;;;;;;1.30;1.20;;;21.60;99.90;;;;;;6241880;23;20597;-72
2023/07/21 10:03:36;;;;;;;4.38;1.52;;;21.70;99.90;;;;;;6240371;23;20024;-72
2023/07/21 10:06:03;;;;;;;2.50;1.52;;;21.70;99.90;;;;;;6241136;23;20091;-72
2023/07/21 10:08:33;;;;;;;3.40;1.45;;;21.40;99.90;;;;;;6241380;23;20020;-72
2023/07/21 10:10:59;;;;;;;2.92;1.58;;;21.40;99.90;;;;;;6213996;23;20030;-74
2023/07/21 10:13:27;;;;;;;2.75;1.38;;;21.40;99.90;;;;;;6210291;23;20058;-73
2023/07/21 10:16:05;;;;;;;1.45;1.08;;;21.50;99.90;;;;;;6239551;23;20024;-74
2023/07/21 10:18:31;;;;;;;1.73;1.20;;;21.50;99.90;;;;;;6240953;23;20020;-74
2023/07/21 10:20:58;;;;;;;2.55;1.42;;;21.60;99.90;;;;;;6214179;23;20555;-73
2023/07/21 10:23:23;;;;;;;8.30;2.80;;;21.60;99.90;;;;;;6241226;23;20016;-74
2023/07/21 10:25:52;;;;;;;2.13;1.10;;;21.60;99.90;;;;;;6240883;23;20024;-74
2023/07/21 10:28:24;;;;;;;2.35;1.08;;;21.60;99.90;;;;;;6214287;23;20023;-72
2023/07/21 10:30:50;;;;;;;2.20;1.17;;;21.60;99.90;;;;;;6214305;23;20110;-72
2023/07/21 10:33:19;;;;;;;2.05;1.23;;;21.60;99.90;;;;;;6241552;23;20082;-72
2023/07/21 10:35:46;;;;;;;2.55;1.00;;;21.70;99.90;;;;;;6241278;23;20027;-73
2023/07/21 10:38:15;;;;;;;1.52;1.17;;;21.70;99.90;;;;;;6241309;23;20376;-72
2023/07/21 10:40:41;;;;;;;2.03;1.20;;;21.70;99.90;;;;;;6214436;23;20023;-73
2023/07/21 10:43:07;;;;;;;3.50;1.02;;;22.00;99.90;;;;;;6214400;23;20024;-73
2023/07/21 10:45:33;;;;;;;2.17;0.90;;;22.10;99.90;;;;;;6240542;23;20189;-72
2023/07/21 10:48:13;;;;;;;3.00;1.13;;;22.20;99.90;;;;;;6214162;23;20027;-73
2023/07/21 10:50:58;;;;;;;8.13;2.20;;;22.30;99.90;;;;;;6214579;23;20543;-73
2023/07/21 10:53:24;;;;;;;3.00;1.30;;;22.30;99.90;;;;;;6214067;23;20020;-72
2023/07/21 10:55:52;;;;;;;2.45;1.05;;;22.20;99.90;;;;;;6241109;23;20035;-72
2023/07/21 10:58:18;;;;;;;1.40;1.27;;;22.20;99.90;;;;;;6240884;23;20024;-72
2023/07/21 11:00:46;;;;;;;1.88;1.15;;;22.20;99.90;;;;;;6213568;23;20375;-72
2023/07/21 11:03:12;;;;;;;1.30;0.95;;;22.30;99.90;;;;;;6213473;23;20013;-72
2023/07/21 11:05:39;;;;;;;1.88;1.30;;;22.30;99.90;;;;;;6213685;23;20147;-72
2023/07/21 11:08:05;;;;;;;3.50;1.00;;;22.30;99.90;;;;;;6240558;23;20020;-72
2023/07/21 11:10:34;;;;;;;2.13;1.17;;;22.30;99.90;;;;;;6240374;23;20023;-72
2023/07/21 11:13:01;;;;;;;2.00;1.20;;;22.20;99.90;;;;;;6240805;23;20016;-72
2023/07/21 11:15:27;;;;;;;3.78;1.20;;;22.30;99.90;;;;;;6242638;23;20012;-72
2023/07/21 11:18:00;;;;;;;2.90;0.90;;;22.20;99.90;;;;;;6214293;23;20031;-72
2023/07/21 11:20:26;;;;;;;1.20;1.00;;;22.20;99.90;;;;;;6214129;23;20031;-72
2023/07/21 11:22:52;;;;;;;2.42;0.77;;;22.40;99.90;;;;;;6213893;23;20098;-72
2023/07/21 11:25:18;;;;;;;3.03;1.30;;;22.50;99.90;;;;;;6240692;23;20439;-72
2023/07/21 11:27:45;;;;;;;2.85;1.42;;;22.50;99.90;;;;;;6213336;23;20016;-72
2023/07/21 11:30:16;;;;;;;2.58;1.23;;;22.50;99.90;;;;;;6241126;23;20097;-72
2023/07/21 11:32:42;;;;;;;2.13;1.65;;;22.60;99.90;;;;;;6188782;23;20125;-72
2023/07/21 11:35:08;;;;;;;5.15;1.65;;;22.40;99.90;;;;;;6240280;23;20020;-71
2023/07/21 11:37:44;;;;;;;4.30;1.13;;;22.50;99.90;;;;;;6240265;23;20020;-72
2023/07/21 11:40:29;;;;;;;3.33;1.20;;;22.50;99.90;;;;;;6213469;23;20022;-72
2023/07/21 11:42:58;;;;;;;2.97;1.65;;;22.60;99.90;;;;;;6239993;23;20012;-72
2023/07/21 11:45:40;;;;;;;2.40;1.70;;;22.60;99.90;;;;;;6240292;23;20020;-71
2023/07/21 11:48:17;;;;;;;2.22;1.73;;;22.50;99.90;;;;;;6240449;23;20098;-73
2023/07/21 11:50:55;;;;;;;2.40;1.50;;;22.60;99.90;;;;;;6241115;23;20016;-73
2023/07/21 11:53:25;;;;;;;1.52;1.20;;;22.70;99.90;;;;;;6239541;23;20310;-72
2023/07/21 11:55:51;;;;;;;1.80;1.38;;;22.70;99.90;;;;;;6212983;23;20035;-72
2023/07/21 11:58:17;;;;;;;3.42;1.23;;;22.90;99.90;;;;;;6215657;23;20457;-73
2023/07/21 12:00:43;;;;;;;3.05;1.15;;;22.90;99.90;;;;;;6242618;23;20024;-72
2023/07/21 12:03:10;;;;;;;2.40;1.00;;;22.90;99.90;;;;;;6215834;23;20020;-73
2023/07/21 12:05:36;;;;;;;2.50;1.25;;;22.90;99.90;;;;;;6242666;23;20020;-71
2023/07/21 12:08:03;;;;;;;1.58;1.10;;;22.90;99.90;;;;;;6215798;23;20027;-74
2023/07/21 12:10:29;;;;;;;4.03;1.55;;;23.00;99.90;;;;;;6214509;23;20338;-71
2023/07/21 12:12:55;;;;;;;1.25;1.15;;;22.80;99.90;;;;;;6242774;23;20016;-71
2023/07/21 12:15:21;;;;;;;4.13;1.40;;;22.80;99.90;;;;;;6242996;23;20023;-73
2023/07/21 12:17:50;;;;;;;3.65;1.33;;;22.80;99.90;;;;;;6215606;23;20056;-73
2023/07/21 12:20:17;;;;;;;2.47;1.48;;;22.80;99.90;;;;;;6242299;23;20031;-72
2023/07/21 12:22:43;;;;;;;2.78;1.60;;;22.90;99.90;;;;;;6215614;23;20024;-71
2023/07/21 12:25:09;;;;;;;3.28;1.73;;;23.00;99.90;;;;;;6213933;23;20024;-73
2023/07/21 12:27:36;;;;;;;3.42;1.50;;;23.00;99.90;;;;;;6242702;23;20024;-72
2023/07/21 12:30:10;;;;;;;3.33;1.08;;;22.90;99.90;;;;;;6242830;23;20020;-72
2023/07/21 12:32:36;;;;;;;3.22;1.20;;;23.10;99.90;;;;;;6243089;23;20027;-72
2023/07/21 12:35:04;;;;;;;2.33;1.15;;;23.00;99.90;;;;;;6242469;23;20008;-72
2023/07/21 12:37:30;;;;;;;1.33;1.05;;;22.90;99.90;;;;;;6215635;23;20466;-72
2023/07/21 12:39:56;;;;;;;1.95;0.93;;;23.00;99.90;;;;;;6242437;23;20440;-73
2023/07/21 12:42:23;;;;;;;1.80;1.17;;;23.10;99.90;;;;;;6242812;23;20022;-72
2023/07/21 12:44:48;;;;;;;2.45;1.10;;;23.00;99.90;;;;;;6242294;23;20020;-72